Time;durP1;ratioP1;P1;durP2;ratioP2;P2;SDS_P1;SDS_P2;PMS_P1;PMS_P2;Temp;Humidity;BMP_temperature;BMP_pressure;BME280_temperature;BME280_humidity;BME280_pressure;Samples;Min_cycle;Max_cycle;Signal;HPM_P1;HPM_P2
2022/03/25 00:01:04;;;;;;;88.15;30.20;;;;;;;13.77;50.23;102573.41;7387278;19;20713;-65
2022/03/25 00:03:31;;;;;;;77.88;28.20;;;;;;;13.74;48.80;102571.88;7385283;19;20007;-65
2022/03/25 00:05:59;;;;;;;83.30;28.38;;;;;;;13.74;48.56;102574.53;7385992;19;20509;-63
2022/03/25 00:08:26;;;;;;;73.43;28.00;;;;;;;13.75;48.88;102562.16;7384305;19;20638;-65
2022/03/25 00:10:53;;;;;;;82.30;29.65;;;;;;;13.74;48.70;102569.25;7384001;19;20010;-64
2022/03/25 00:13:22;;;;;;;83.97;30.25;;;;;;;13.76;50.63;102572.63;7383675;19;20066;-63
2022/03/25 00:15:49;;;;;;;76.82;30.10;;;;;;;13.76;48.85;102569.13;7385340;19;20086;-65
2022/03/25 00:18:16;;;;;;;92.28;29.98;;;;;;;13.74;48.51;102576.34;7387080;19;20027;-63
2022/03/25 00:20:45;;;;;;;84.63;31.67;;;;;;;13.76;50.68;102571.78;7385122;19;20030;-64
2022/03/25 00:23:12;;;;;;;86.60;28.10;;;;;;;13.75;48.71;102576.22;7383507;19;20492;-66
2022/03/25 00:25:39;;;;;;;85.93;29.08;;;;;;;13.76;48.44;102569.13;7385694;19;20010;-64
2022/03/25 00:28:06;;;;;;;85.32;29.92;;;;;;;13.72;49.66;102568.53;7386421;19;20011;-64
2022/03/25 00:30:34;;;;;;;83.10;30.58;;;;;;;13.69;48.87;102571.44;7384066;19;20030;-64
2022/03/25 00:33:01;;;;;;;82.70;29.25;;;;;;;13.65;48.73;102577.97;7388659;19;20010;-63
2022/03/25 00:35:28;;;;;;;82.30;28.83;;;;;;;13.63;48.48;102571.94;7387563;19;20078;-64
2022/03/25 00:37:54;;;;;;;80.18;28.50;;;;;;;13.60;49.24;102570.41;7384719;19;20010;-65
2022/03/25 00:40:21;;;;;;;80.90;29.70;;;;;;;13.56;49.09;102570.81;7384867;19;20022;-65
2022/03/25 00:42:48;;;;;;;86.28;32.38;;;;;;;13.53;50.37;102578.97;7382666;19;20010;-66
2022/03/25 00:45:15;;;;;;;87.97;29.63;;;;;;;13.50;50.35;102573.97;7385031;19;20010;-63
2022/03/25 00:47:42;;;;;;;89.80;31.27;;;;;;;13.49;49.21;102581.06;7382644;19;20018;-64
2022/03/25 00:50:11;;;;;;;88.95;30.92;;;;;;;13.47;49.23;102582.13;7384053;19;20457;-64
2022/03/25 00:52:38;;;;;;;83.85;30.23;;;;;;;13.44;50.87;102583.25;7385540;19;20389;-63
2022/03/25 00:55:06;;;;;;;95.47;32.30;;;;;;;13.42;49.54;102589.63;7384657;19;20025;-64
2022/03/25 00:57:33;;;;;;;83.13;28.95;;;;;;;13.41;49.65;102580.03;7385825;19;20014;-64
2022/03/25 01:00:00;;;;;;;90.25;30.10;;;;;;;13.39;49.73;102581.94;7383881;19;20066;-64
2022/03/25 01:02:29;;;;;;;94.53;31.65;;;;;;;13.36;48.78;102584.88;7383600;19;20015;-65
2022/03/25 01:04:56;;;;;;;88.97;30.80;;;;;;;13.32;49.06;102581.59;7384071;19;20122;-64
2022/03/25 01:07:23;;;;;;;84.00;29.50;;;;;;;13.27;48.90;102584.63;7383256;19;20025;-63
2022/03/25 01:09:50;;;;;;;78.38;26.00;;;;;;;13.24;48.33;102590.19;7384279;19;20006;-64
2022/03/25 01:12:19;;;;;;;78.18;26.27;;;;;;;13.22;48.92;102580.69;7383285;19;20140;-64
2022/03/25 01:14:46;;;;;;;73.32;26.05;;;;;;;13.19;47.50;102580.97;7381313;19;20130;-64
2022/03/25 01:17:15;;;;;;;68.68;25.60;;;;;;;13.16;46.86;102576.75;7384285;19;20022;-65
2022/03/25 01:19:41;;;;;;;73.10;24.98;;;;;;;13.11;47.77;102578.06;7382329;19;20017;-64
2022/03/25 01:22:08;;;;;;;80.90;26.45;;;;;;;13.09;46.73;102574.72;7383825;19;20042;-64
2022/03/25 01:24:35;;;;;;;75.50;26.58;;;;;;;13.08;48.16;102575.69;7388100;19;20050;-64
2022/03/25 01:27:04;;;;;;;69.22;25.10;;;;;;;13.01;47.46;102569.22;7390873;19;20326;-64
2022/03/25 01:29:40;;;;;;;70.15;24.90;;;;;;;12.99;47.56;102573.78;7393596;19;20569;-64
2022/03/25 01:32:08;;;;;;;68.60;24.35;;;;;;;12.97;48.20;102563.34;7391207;19;20019;-64
2022/03/25 01:34:36;;;;;;;74.53;26.17;;;;;;;12.91;47.62;102571.75;7389840;19;20031;-63
2022/03/25 01:37:03;;;;;;;76.10;27.10;;;;;;;12.91;48.81;102569.13;7390318;19;20014;-64
2022/03/25 01:39:30;;;;;;;69.45;24.77;;;;;;;12.86;48.13;102568.66;7386376;19;20017;-64
2022/03/25 01:41:57;;;;;;;72.22;26.20;;;;;;;12.82;48.37;102570.72;7386948;19;20130;-64
2022/03/25 01:44:26;;;;;;;75.57;27.50;;;;;;;12.82;49.00;102565.44;7389388;19;20086;-64
2022/03/25 01:46:55;;;;;;;73.75;26.50;;;;;;;12.74;48.42;102569.66;7389281;19;20021;-63
2022/03/25 01:49:22;;;;;;;76.05;26.30;;;;;;;12.71;49.76;102564.59;7390618;19;20048;-63
2022/03/25 01:51:52;;;;;;;69.80;24.88;;;;;;;12.68;49.27;102567.50;7393048;19;20010;-64
2022/03/25 01:54:26;;;;;;;82.18;27.65;;;;;;;12.63;48.91;102567.88;7389919;19;20141;-65
2022/03/25 01:57:13;;;;;;;68.60;24.40;;;;;;;12.55;49.16;102565.00;7390096;19;20028;-65
2022/03/25 01:59:40;;;;;;;70.25;24.30;;;;;;;12.51;50.46;102570.66;7390731;19;20011;-65
2022/03/25 02:02:09;;;;;;;79.18;24.15;;;;;;;12.46;49.40;102572.81;7387513;19;20675;-64
2022/03/25 02:04:36;;;;;;;76.63;26.10;;;;;;;12.46;49.34;102564.91;7388696;19;20023;-65
2022/03/25 02:07:04;;;;;;;69.93;25.23;;;;;;;12.44;49.29;102565.03;7391303;19;20106;-64
2022/03/25 02:09:31;;;;;;;77.10;24.20;;;;;;;12.43;49.30;102566.84;7387987;19;20631;-63
2022/03/25 02:11:59;;;;;;;71.15;24.92;;;;;;;12.39;50.02;102565.38;7389328;19;20013;-65
2022/03/25 02:14:26;;;;;;;67.72;24.70;;;;;;;12.34;49.39;102566.72;7386388;19;20010;-63
2022/03/25 02:16:53;;;;;;;77.18;26.75;;;;;;;12.28;49.65;102565.41;7391753;19;20076;-64
2022/03/25 02:19:23;;;;;;;74.43;24.67;;;;;;;12.23;49.74;102572.00;7388781;19;20077;-63
2022/03/25 02:21:51;;;;;;;75.43;25.77;;;;;;;12.19;49.64;102566.09;7388083;19;20010;-64
2022/03/25 02:24:18;;;;;;;75.38;24.85;;;;;;;12.18;50.13;102571.53;7389801;19;20106;-64
2022/03/25 02:26:44;;;;;;;74.63;25.83;;;;;;;12.16;50.63;102566.34;7389429;19;20003;-64
2022/03/25 02:29:14;;;;;;;79.57;26.88;;;;;;;12.16;50.68;102566.34;7390791;19;20029;-65
2022/03/25 02:31:42;;;;;;;73.40;26.33;;;;;;;12.10;50.78;102561.56;7388930;19;20082;-64
2022/03/25 02:34:09;;;;;;;75.13;27.27;;;;;;;12.10;52.08;102568.63;7389642;19;20010;-64
2022/03/25 02:36:41;;;;;;;78.13;26.33;;;;;;;12.10;51.81;102569.47;7386419;19;20014;-64
2022/03/25 02:39:10;;;;;;;82.68;28.98;;;;;;;12.08;51.75;102562.66;7386810;19;20647;-63
2022/03/25 02:41:37;;;;;;;85.07;28.05;;;;;;;12.07;52.89;102558.31;7385856;19;20504;-64
2022/03/25 02:44:05;;;;;;;82.28;27.88;;;;;;;12.10;52.56;102563.34;7384949;19;20011;-64
2022/03/25 02:46:32;;;;;;;81.60;27.70;;;;;;;12.11;52.35;102563.25;7390258;19;20022;-65
2022/03/25 02:48:59;;;;;;;88.88;29.98;;;;;;;12.13;53.87;102555.22;7390249;19;20015;-64
2022/03/25 02:51:26;;;;;;;85.43;28.40;;;;;;;12.15;52.79;102554.13;7388678;19;20200;-64
2022/03/25 02:53:53;;;;;;;89.47;29.88;;;;;;;12.15;52.75;102559.41;7387842;19;20017;-64
2022/03/25 02:56:20;;;;;;;84.97;29.40;;;;;;;12.10;52.61;102563.34;7386763;19;20056;-64
2022/03/25 02:58:47;;;;;;;81.13;29.77;;;;;;;12.06;52.85;102554.00;7389904;19;20006;-64
2022/03/25 03:01:14;;;;;;;84.35;27.73;;;;;;;12.02;53.05;102561.31;7387409;19;20722;-64
2022/03/25 03:03:41;;;;;;;85.28;30.05;;;;;;;12.00;52.81;102555.31;7388573;19;20537;-64
2022/03/25 03:06:08;;;;;;;81.38;29.25;;;;;;;11.98;53.70;102554.63;7385253;19;20468;-64
2022/03/25 03:08:37;;;;;;;78.00;27.48;;;;;;;11.97;53.22;102563.47;7387708;19;20023;-64
2022/03/25 03:11:04;;;;;;;82.03;29.20;;;;;;;11.95;53.71;102557.47;7387276;19;20006;-65
2022/03/25 03:13:31;;;;;;;88.82;29.10;;;;;;;11.92;53.42;102558.56;7387851;19;20102;-65
2022/03/25 03:15:58;;;;;;;86.72;28.67;;;;;;;11.92;53.60;102557.72;7385682;19;20491;-63
2022/03/25 03:18:25;;;;;;;85.57;29.40;;;;;;;11.85;53.36;102559.97;7390590;19;20034;-64
2022/03/25 03:20:52;;;;;;;87.90;29.33;;;;;;;11.80;52.93;102563.94;7386299;19;20640;-64
2022/03/25 03:23:21;;;;;;;89.47;28.83;;;;;;;11.75;52.94;102559.00;7386104;19;20045;-64
2022/03/25 03:25:48;;;;;;;88.15;28.55;;;;;;;11.73;53.60;102557.47;7385908;19;20021;-65
2022/03/25 03:28:15;;;;;;;81.07;29.83;;;;;;;11.70;53.40;102553.22;7388288;19;20019;-64
2022/03/25 03:30:42;;;;;;;85.43;30.30;;;;;;;11.70;53.22;102553.22;7387160;19;20022;-65
2022/03/25 03:33:09;;;;;;;86.72;29.75;;;;;;;11.68;53.50;102555.16;7388400;19;20022;-65
2022/03/25 03:35:36;;;;;;;88.75;30.35;;;;;;;11.66;53.62;102550.94;7388784;19;20576;-65
2022/03/25 03:38:04;;;;;;;92.68;29.55;;;;;;;11.65;53.48;102560.63;7388712;19;20113;-65
2022/03/25 03:40:31;;;;;;;87.03;32.03;;;;;;;11.64;54.18;102561.59;7384011;19;20021;-65
2022/03/25 03:42:59;;;;;;;92.20;31.30;;;;;;;11.59;54.55;102561.94;7385929;19;20027;-63
2022/03/25 03:45:26;;;;;;;98.47;31.65;;;;;;;11.61;54.29;102561.00;7383596;19;20432;-64
2022/03/25 03:47:53;;;;;;;94.05;30.75;;;;;;;11.58;54.26;102560.25;7387394;19;20081;-63
2022/03/25 03:50:20;;;;;;;95.95;33.40;;;;;;;11.47;54.98;102573.44;7389600;19;20029;-63
2022/03/25 03:52:48;;;;;;;93.93;33.20;;;;;;;11.48;54.97;102563.69;7386317;19;20074;-64
2022/03/25 03:55:15;;;;;;;105.15;35.15;;;;;;;11.45;55.70;102558.66;7388229;19;20105;-64
2022/03/25 03:57:42;;;;;;;99.88;34.40;;;;;;;11.42;56.11;102570.28;7389991;19;20097;-64
2022/03/25 04:00:12;;;;;;;97.80;34.70;;;;;;;11.40;56.06;102560.81;7387508;19;20028;-64
2022/03/25 04:02:41;;;;;;;102.95;34.05;;;;;;;11.39;56.28;102569.66;7384078;19;20741;-64
2022/03/25 04:05:10;;;;;;;94.72;34.15;;;;;;;11.37;57.66;102566.31;7385096;19;20026;-65
2022/03/25 04:07:43;;;;;;;107.28;35.95;;;;;;;11.36;57.49;102564.63;7389103;19;20006;-64
2022/03/25 04:10:12;;;;;;;104.95;36.72;;;;;;;11.31;57.22;102566.78;7383011;19;20025;-64
2022/03/25 04:12:42;;;;;;;97.93;34.65;;;;;;;11.30;58.24;102575.63;7383497;19;20320;-64
2022/03/25 04:15:10;;;;;;;104.05;35.60;;;;;;;11.25;58.19;102573.34;7383301;19;20031;-64
2022/03/25 04:17:41;;;;;;;111.70;37.78;;;;;;;11.22;58.46;102578.00;7384750;19;20052;-63
2022/03/25 04:20:09;;;;;;;114.95;36.75;;;;;;;11.20;59.38;102577.25;7384489;19;20077;-64
2022/03/25 04:22:36;;;;;;;100.45;34.80;;;;;;;11.19;58.44;102573.78;7383846;19;20480;-64
2022/03/25 04:25:08;;;;;;;106.70;36.72;;;;;;;11.18;59.65;102577.38;7387741;19;20010;-63
2022/03/25 04:27:56;;;;;;;109.15;36.28;;;;;;;11.16;58.89;102579.28;7383210;19;20074;-64
2022/03/25 04:30:31;;;;;;;110.68;37.50;;;;;;;11.20;60.98;102572.84;7389289;19;20018;-63
2022/03/25 04:32:59;;;;;;;107.97;36.67;;;;;;;11.20;59.39;102574.63;7387582;19;20014;-64
2022/03/25 04:35:28;;;;;;;100.75;36.38;;;;;;;11.22;59.62;102578.00;7386587;19;20094;-64
2022/03/25 04:37:56;;;;;;;106.95;36.90;;;;;;;11.20;60.27;102580.75;7384316;19;20126;-64
2022/03/25 04:40:26;;;;;;;108.35;38.55;;;;;;;11.19;60.29;102573.78;7380287;19;20372;-64
2022/03/25 04:42:55;;;;;;;101.50;36.38;;;;;;;11.17;60.32;102582.78;7384416;19;20342;-64
2022/03/25 04:45:23;;;;;;;102.68;35.53;;;;;;;11.13;59.93;102582.13;7382492;19;20475;-63
2022/03/25 04:47:50;;;;;;;109.72;36.88;;;;;;;11.12;59.45;102581.28;7386502;19;20476;-64
2022/03/25 04:50:17;;;;;;;98.55;36.55;;;;;;;11.10;60.95;102582.38;7383875;19;20018;-64
2022/03/25 04:52:46;;;;;;;105.00;37.75;;;;;;;11.07;60.18;102580.78;7382496;19;20680;-63
2022/03/25 04:55:16;;;;;;;107.60;36.72;;;;;;;11.04;60.23;102580.19;7381856;19;20023;-64
2022/03/25 04:57:43;;;;;;;105.78;36.90;;;;;;;11.02;60.43;102590.81;7391872;19;20347;-63
2022/03/25 05:00:11;;;;;;;106.85;38.95;;;;;;;11.00;60.62;102602.44;7394991;19;20014;-63
2022/03/25 05:02:38;;;;;;;104.97;38.00;;;;;;;10.95;60.66;102594.03;7395866;19;20007;-63
2022/03/25 05:05:06;;;;;;;106.28;38.47;;;;;;;10.96;60.82;102593.09;7390177;19;20007;-64
2022/03/25 05:07:33;;;;;;;111.50;39.95;;;;;;;10.93;62.28;102595.91;7393429;19;20010;-64
2022/03/25 05:10:01;;;;;;;110.35;37.95;;;;;;;10.92;61.66;102591.63;7388905;19;20410;-64
2022/03/25 05:12:29;;;;;;;118.00;39.58;;;;;;;10.93;61.36;102596.75;7388418;19;20127;-63
2022/03/25 05:14:57;;;;;;;112.45;38.33;;;;;;;10.92;61.24;102600.34;7393090;19;20593;-63
2022/03/25 05:17:25;;;;;;;113.75;39.28;;;;;;;10.90;61.45;102597.00;7390731;19;20381;-63
2022/03/25 05:20:05;;;;;;;116.82;40.05;;;;;;;10.89;61.63;102602.38;7388709;19;20030;-64
2022/03/25 05:22:32;;;;;;;112.90;39.15;;;;;;;10.90;62.69;102607.53;7390846;19;20035;-63
2022/03/25 05:25:06;;;;;;;109.15;37.63;;;;;;;10.87;61.68;102599.03;7390719;19;20350;-64
2022/03/25 05:27:44;;;;;;;111.15;38.80;;;;;;;10.87;61.76;102599.03;7388311;19;20130;-64
2022/03/25 05:30:11;;;;;;;106.22;39.42;;;;;;;10.83;62.67;102608.06;7393318;19;20254;-64
2022/03/25 05:32:39;;;;;;;112.65;38.45;;;;;;;10.76;62.29;102604.22;7388305;19;20015;-63
2022/03/25 05:35:07;;;;;;;109.53;38.65;;;;;;;10.78;61.80;102607.56;7393628;19;20432;-64
2022/03/25 05:37:36;;;;;;;109.32;37.47;;;;;;;10.75;61.70;102602.53;7389505;19;20078;-65
2022/03/25 05:40:03;;;;;;;105.65;38.17;;;;;;;10.70;61.61;102605.50;7388177;19;20011;-63
2022/03/25 05:42:31;;;;;;;107.38;37.67;;;;;;;10.64;61.96;102609.41;7392714;19;20110;-64
2022/03/25 05:44:57;;;;;;;109.47;39.88;;;;;;;10.59;61.99;102608.03;7388332;19;20025;-63
2022/03/25 05:47:25;;;;;;;110.57;37.45;;;;;;;10.57;62.56;102612.56;7388811;19;20131;-63
2022/03/25 05:49:54;;;;;;;119.97;40.17;;;;;;;10.49;63.18;102607.84;7389140;19;20027;-63
2022/03/25 05:52:21;;;;;;;109.90;39.08;;;;;;;10.50;63.17;102621.84;7393617;19;20432;-64
2022/03/25 05:54:48;;;;;;;111.38;40.90;;;;;;;10.47;64.34;102616.78;7392766;19;20015;-63
2022/03/25 05:57:15;;;;;;;102.82;37.45;;;;;;;10.45;63.95;102619.53;7392769;19;20570;-64
2022/03/25 05:59:41;;;;;;;117.95;40.42;;;;;;;10.48;65.01;102621.09;7392041;19;20033;-63
2022/03/25 06:02:08;;;;;;;106.43;38.42;;;;;;;10.48;64.83;102621.94;7389428;19;20349;-63
2022/03/25 06:04:36;;;;;;;112.60;40.03;;;;;;;10.51;63.65;102623.53;7389535;19;20323;-65
2022/03/25 06:07:03;;;;;;;112.13;40.22;;;;;;;10.53;64.54;102627.72;7388584;19;20019;-64
2022/03/25 06:09:30;;;;;;;115.13;40.17;;;;;;;10.52;63.65;102630.47;7386818;19;20018;-64
2022/03/25 06:11:57;;;;;;;108.25;40.40;;;;;;;10.50;63.61;102624.47;7386763;19;20010;-63
2022/03/25 06:14:26;;;;;;;104.25;38.35;;;;;;;10.49;64.99;102623.63;7387735;19;20511;-65
2022/03/25 06:16:53;;;;;;;109.13;38.33;;;;;;;10.52;63.90;102630.47;7391775;19;20018;-65
2022/03/25 06:19:20;;;;;;;114.32;40.88;;;;;;;10.52;63.68;102626.03;7388984;19;20600;-64
2022/03/25 06:21:47;;;;;;;108.93;38.92;;;;;;;10.50;63.61;102627.13;7392192;19;20140;-65
2022/03/25 06:24:14;;;;;;;109.43;38.13;;;;;;;10.52;63.85;102628.69;7389229;19;20432;-63
2022/03/25 06:26:42;;;;;;;108.43;37.88;;;;;;;10.56;64.91;102631.97;7389549;19;20446;-64
2022/03/25 06:29:09;;;;;;;111.22;40.45;;;;;;;10.55;64.17;102631.13;7392651;19;20585;-63
2022/03/25 06:31:36;;;;;;;104.90;39.00;;;;;;;10.56;65.92;102627.53;7390379;19;20034;-63
2022/03/25 06:34:03;;;;;;;100.68;37.60;;;;;;;10.58;64.72;102636.16;7390212;19;20137;-64
2022/03/25 06:36:30;;;;;;;108.30;39.25;;;;;;;10.60;65.12;102634.25;7388891;19;20036;-63
2022/03/25 06:38:57;;;;;;;108.72;38.50;;;;;;;10.59;65.30;102629.94;7385710;19;20021;-63
2022/03/25 06:41:24;;;;;;;118.10;41.10;;;;;;;10.62;65.03;102637.59;7387482;19;20029;-63
2022/03/25 06:43:51;;;;;;;118.95;42.08;;;;;;;10.66;65.59;102639.09;7388146;19;20011;-63
2022/03/25 06:46:22;;;;;;;111.30;38.03;;;;;;;10.69;64.60;102636.25;7384104;19;20010;-65
2022/03/25 06:48:50;;;;;;;117.28;42.17;;;;;;;10.73;65.31;102639.47;7391526;19;20026;-64
2022/03/25 06:51:18;;;;;;;118.85;42.30;;;;;;;10.71;64.43;102642.25;7389603;19;20074;-64
2022/03/25 06:53:45;;;;;;;112.03;40.92;;;;;;;10.76;65.09;102643.72;7391862;19;20011;-63
2022/03/25 06:56:15;;;;;;;110.65;39.47;;;;;;;10.76;64.22;102651.59;7389012;19;20114;-63
2022/03/25 06:58:48;;;;;;;104.65;39.67;;;;;;;10.83;64.69;102647.56;7390123;19;20014;-64
2022/03/25 07:01:16;;;;;;;115.20;42.08;;;;;;;10.83;64.76;102653.69;7387543;19;20031;-64
2022/03/25 07:03:43;;;;;;;119.47;42.35;;;;;;;10.83;64.25;102661.56;7387958;19;20010;-64
2022/03/25 07:06:14;;;;;;;113.25;42.97;;;;;;;10.84;65.62;102658.00;7387905;19;20034;-64
2022/03/25 07:08:48;;;;;;;109.55;39.90;;;;;;;10.87;64.13;102654.31;7389539;19;20086;-64
2022/03/25 07:11:15;;;;;;;118.80;42.25;;;;;;;10.90;64.74;102657.56;7384727;19;20428;-64
2022/03/25 07:13:42;;;;;;;115.25;41.55;;;;;;;10.91;64.68;102655.78;7389051;19;20038;-64
2022/03/25 07:16:09;;;;;;;119.35;41.33;;;;;;;10.95;64.11;102665.97;7385234;19;20006;-65
2022/03/25 07:18:37;;;;;;;113.28;41.17;;;;;;;11.12;64.35;102662.97;7386595;19;20481;-63
2022/03/25 07:21:05;;;;;;;112.78;41.40;;;;;;;11.46;62.45;102671.91;7388663;19;20038;-65
2022/03/25 07:23:32;;;;;;;113.50;44.13;;;;;;;11.75;63.08;102664.50;7385451;19;20041;-64
2022/03/25 07:25:59;;;;;;;114.60;41.88;;;;;;;12.00;61.00;102666.13;7385019;19;20019;-64
2022/03/25 07:28:30;;;;;;;122.95;44.63;;;;;;;12.17;61.21;102664.84;7389364;19;20463;-63
2022/03/25 07:31:07;;;;;;;119.50;41.40;;;;;;;12.32;59.99;102667.16;7385277;19;20010;-64
2022/03/25 07:33:34;;;;;;;113.35;43.15;;;;;;;12.35;59.21;102666.06;7387521;19;20021;-64
2022/03/25 07:36:02;;;;;;;111.95;40.55;;;;;;;12.27;59.61;102671.09;7384185;19;20021;-63
2022/03/25 07:38:29;;;;;;;112.63;41.70;;;;;;;12.34;59.15;102672.31;7383935;19;20025;-65
2022/03/25 07:40:56;;;;;;;110.97;41.08;;;;;;;12.74;57.81;102673.53;7386072;19;20017;-63
2022/03/25 07:43:23;;;;;;;113.55;43.58;;;;;;;12.86;57.42;102682.25;7388185;19;20703;-64
2022/03/25 07:45:51;;;;;;;113.22;43.60;;;;;;;12.73;57.80;102685.03;7386684;19;20107;-64
2022/03/25 07:48:18;;;;;;;108.65;41.85;;;;;;;12.72;57.76;102683.34;7388868;19;20468;-63
2022/03/25 07:50:45;;;;;;;105.90;42.33;;;;;;;12.88;57.35;102688.28;7388247;19;20015;-63
2022/03/25 07:53:16;;;;;;;117.90;41.60;;;;;;;13.16;57.01;102698.34;7387375;19;20019;-63
2022/03/25 07:55:44;;;;;;;116.85;44.45;;;;;;;13.28;56.59;102693.88;7387403;19;20011;-63
2022/03/25 07:58:11;;;;;;;117.05;42.35;;;;;;;13.26;56.25;102701.06;7387475;19;20086;-63
2022/03/25 08:00:39;;;;;;;120.15;44.50;;;;;;;13.29;57.25;102703.50;7385724;19;20152;-63
2022/03/25 08:03:07;;;;;;;117.47;43.67;;;;;;;13.46;56.05;102695.00;7386502;19;20007;-65
2022/03/25 08:05:35;;;;;;;111.75;42.28;;;;;;;13.81;54.87;102699.22;7383562;19;20025;-65
2022/03/25 08:08:03;;;;;;;118.68;43.53;;;;;;;13.87;54.34;102704.81;7383288;19;20092;-65
2022/03/25 08:10:31;;;;;;;116.53;43.25;;;;;;;13.77;54.90;102703.06;7384348;19;20014;-67
2022/03/25 08:13:01;;;;;;;107.35;42.65;;;;;;;13.69;55.27;102706.38;7385672;19;20014;-64
2022/03/25 08:15:30;;;;;;;120.13;44.72;;;;;;;13.63;54.39;102707.72;7381343;19;20003;-62
2022/03/25 08:18:01;;;;;;;112.53;43.90;;;;;;;13.53;55.78;102700.66;7384484;19;20015;-64
2022/03/25 08:20:39;;;;;;;116.43;43.25;;;;;;;13.47;55.51;102709.06;7388317;19;20010;-64
2022/03/25 08:23:12;;;;;;;107.88;42.85;;;;;;;13.36;55.54;102709.13;7388191;19;20090;-64
2022/03/25 08:28:25;;;;;;;95.40;37.30;;;;;;;13.43;55.45;102712.94;7385831;19;19915;-65
2022/03/25 08:31:15;;;;;;;114.10;40.35;;;;;;;13.63;55.83;102715.63;7386500;19;20026;-64
2022/03/25 08:33:45;;;;;;;110.10;40.58;;;;;;;13.65;54.96;102716.38;7384943;19;20018;-65
2022/03/25 08:36:22;;;;;;;108.45;40.20;;;;;;;13.63;55.14;102712.16;7381619;19;20087;-65
2022/03/25 08:38:48;;;;;;;103.03;40.20;;;;;;;13.53;54.87;102722.66;7382350;19;20011;-65
2022/03/25 08:41:20;;;;;;;103.25;39.80;;;;;;;13.51;55.03;102723.75;7381640;19;20015;-65
2022/03/25 08:43:47;;;;;;;104.68;39.45;;;;;;;13.45;55.03;102718.97;7384374;19;20698;-64
2022/03/25 08:46:22;;;;;;;99.72;36.70;;;;;;;13.49;54.91;102720.38;7382042;19;20058;-64
2022/03/25 08:48:49;;;;;;;97.45;37.75;;;;;;;13.33;54.43;102728.72;7383821;19;20324;-66
2022/03/25 08:51:17;;;;;;;93.43;35.55;;;;;;;13.46;53.60;102718.00;7383326;19;20057;-65
2022/03/25 08:53:45;;;;;;;89.05;33.88;;;;;;;13.46;54.02;102723.28;7388307;19;20010;-64
2022/03/25 08:56:16;;;;;;;87.88;34.85;;;;;;;13.47;53.61;102725.78;7386431;19;20317;-63
2022/03/25 08:58:48;;;;;;;93.43;33.40;;;;;;;13.48;52.89;102732.75;7386342;19;20010;-65
2022/03/25 09:01:15;;;;;;;96.68;34.00;;;;;;;13.56;53.14;102725.03;7382804;19;20078;-64
2022/03/25 09:03:45;;;;;;;87.25;33.88;;;;;;;13.64;52.51;102727.06;7385695;19;20019;-65
2022/03/25 09:06:22;;;;;;;87.50;32.50;;;;;;;13.73;52.06;102731.59;7386726;19;20220;-66
2022/03/25 09:08:50;;;;;;;91.90;33.88;;;;;;;13.81;51.83;102742.41;7377373;19;20018;-63
2022/03/25 09:11:17;;;;;;;84.32;31.85;;;;;;;13.89;51.74;102741.75;7382515;19;20654;-64
2022/03/25 09:13:44;;;;;;;88.20;32.20;;;;;;;13.97;51.42;102734.84;7386818;19;20017;-63
2022/03/25 09:16:16;;;;;;;79.95;30.98;;;;;;;14.08;50.47;102736.59;7384597;19;20014;-65
2022/03/25 09:18:52;;;;;;;77.13;29.40;;;;;;;14.21;51.29;102741.72;7383512;19;20023;-64
2022/03/25 09:21:22;;;;;;;73.07;29.42;;;;;;;14.25;50.54;102738.69;7386688;19;20011;-64
2022/03/25 09:23:50;;;;;;;69.88;26.20;;;;;;;14.36;53.20;102738.66;7386218;19;20034;-65
2022/03/25 09:26:23;;;;;;;77.60;27.40;;;;;;;14.45;52.79;102745.81;7382095;19;20019;-64
2022/03/25 09:28:50;;;;;;;78.50;28.77;;;;;;;14.59;49.95;102749.09;7383979;19;20027;-64
2022/03/25 09:31:18;;;;;;;83.80;32.13;;;;;;;14.68;55.37;102743.84;7385026;19;20022;-64
2022/03/25 09:36:51;;;;;;;72.30;28.10;;;;;;;14.79;51.10;102742.91;7382942;19;20018;-64
2022/03/25 09:39:18;;;;;;;74.93;28.30;;;;;;;14.72;50.66;102747.91;7382661;19;20015;-64
2022/03/25 09:41:46;;;;;;;72.13;28.42;;;;;;;14.80;49.72;102749.91;7383440;19;20078;-64
2022/03/25 09:44:16;;;;;;;75.38;27.52;;;;;;;14.81;49.57;102743.63;7387377;19;20659;-63
2022/03/25 09:46:44;;;;;;;72.03;27.60;;;;;;;14.77;50.99;102751.00;7388257;19;20023;-65
2022/03/25 09:49:12;;;;;;;70.28;26.52;;;;;;;14.80;50.92;102747.25;7392600;19;20011;-65
2022/03/25 09:51:41;;;;;;;74.18;27.05;;;;;;;14.86;51.64;102752.03;7393091;19;20494;-65
2022/03/25 09:54:11;;;;;;;69.93;27.20;;;;;;;14.88;51.50;102752.75;7389944;19;20382;-65
2022/03/25 09:56:38;;;;;;;65.07;26.40;;;;;;;14.94;51.07;102747.72;7387726;19;20014;-63
2022/03/25 09:59:06;;;;;;;68.90;27.92;;;;;;;15.02;50.68;102748.88;7392164;19;20028;-63
2022/03/25 10:01:34;;;;;;;80.63;28.40;;;;;;;15.08;50.66;102749.19;7394011;19;20010;-64
2022/03/25 10:04:04;;;;;;;72.35;28.35;;;;;;;15.15;49.54;102760.06;7390080;19;20014;-65
2022/03/25 10:06:46;;;;;;;66.60;25.92;;;;;;;15.19;49.93;102762.31;7389552;19;20031;-64
2022/03/25 10:09:21;;;;;;;67.15;25.45;;;;;;;15.17;50.03;102751.03;7389549;19;20010;-65
2022/03/25 10:11:48;;;;;;;71.43;26.27;;;;;;;15.17;50.32;102763.44;7389480;19;20093;-65
2022/03/25 10:14:18;;;;;;;70.53;28.05;;;;;;;15.18;50.20;102757.16;7389053;19;20022;-65
2022/03/25 10:16:47;;;;;;;70.40;28.48;;;;;;;15.18;50.94;102754.50;7388130;19;20030;-64
2022/03/25 10:19:22;;;;;;;75.22;29.73;;;;;;;15.16;50.93;102746.69;7391892;19;20034;-64
2022/03/25 10:21:58;;;;;;;73.43;28.70;;;;;;;15.26;49.72;102752.00;7389041;19;20024;-64
2022/03/25 10:24:52;;;;;;;70.68;27.70;;;;;;;15.32;49.95;102744.34;7382167;19;20022;-64
2022/03/25 10:27:28;;;;;;;71.18;27.17;;;;;;;15.32;50.42;102749.66;7378706;19;20006;-63
2022/03/25 10:30:00;;;;;;;67.28;27.52;;;;;;;15.39;50.68;102744.63;7391264;19;20447;-65
2022/03/25 10:32:28;;;;;;;74.55;29.42;;;;;;;15.45;50.35;102749.41;7384501;19;20302;-63
2022/03/25 10:35:08;;;;;;;66.47;26.80;;;;;;;15.56;49.27;102748.47;7389489;19;20122;-64
2022/03/25 10:37:38;;;;;;;61.70;25.55;;;;;;;15.62;49.36;102755.88;7389232;19;20007;-63
2022/03/25 10:40:08;;;;;;;71.70;27.85;;;;;;;15.65;49.71;102753.78;7385967;19;20050;-63
2022/03/25 10:42:36;;;;;;;74.45;28.23;;;;;;;15.73;50.46;102756.59;7387120;19;20017;-63
2022/03/25 10:45:25;;;;;;;69.93;28.02;;;;;;;15.76;48.59;102744.84;7388513;19;20078;-64
2022/03/25 10:48:13;;;;;;;72.28;29.13;;;;;;;15.79;49.00;102750.75;7389548;19;20484;-64
2022/03/25 10:50:59;;;;;;;60.42;24.95;;;;;;;15.85;49.38;102746.66;7383858;19;20713;-63
2022/03/25 10:53:27;;;;;;;64.32;25.55;;;;;;;15.89;48.47;102747.25;7388327;19;20006;-64
2022/03/25 10:56:06;;;;;;;64.18;25.27;;;;;;;15.93;48.25;102746.81;7386229;19;20364;-65
2022/03/25 10:58:35;;;;;;;69.57;26.30;;;;;;;16.01;49.81;102746.09;7387974;19;20496;-64
2022/03/25 11:01:06;;;;;;;60.63;25.02;;;;;;;16.05;48.54;102751.00;7386595;19;20041;-64
2022/03/25 11:03:35;;;;;;;61.00;25.47;;;;;;;16.16;47.98;102753.50;7389503;19;20014;-65
2022/03/25 11:06:04;;;;;;;66.72;24.80;;;;;;;16.23;47.50;102743.16;7385507;19;20421;-65
2022/03/25 11:08:31;;;;;;;60.10;24.35;;;;;;;16.27;47.17;102742.72;7386394;19;20014;-64
2022/03/25 11:10:58;;;;;;;56.28;22.50;;;;;;;16.35;47.22;102746.50;7386176;19;20015;-64
2022/03/25 11:13:26;;;;;;;58.80;23.20;;;;;;;16.43;46.87;102739.47;7387041;19;20511;-65
2022/03/25 11:15:55;;;;;;;60.88;24.48;;;;;;;16.37;47.58;102745.38;7386220;19;20701;-65
2022/03/25 11:18:27;;;;;;;59.75;23.05;;;;;;;16.42;47.71;102748.44;7385632;19;20040;-64
2022/03/25 11:20:58;;;;;;;56.07;22.60;;;;;;;16.44;47.46;102748.28;7388537;19;20017;-64